N37WX NZHN-NZWN
Flight info
| Callsign | N37WX |
|---|---|
| Flight time | 0h 46m |
| Altitude | 33998 |
| Route | DROPT H325 PM V242 DOGAD |
| Aircraft | FA50/M-SDFGHIM1RWXY/H |
Departure
| Time | 2026-04-16 10:10 |
|---|---|
| Airport | Hamilton International Airport (NZHN) |
Arrival
| Time | 2026-04-16 10:56 |
|---|---|
| Airport | Wellington International Airport (NZWN) |
| Time | Latitude | Longitude | Altitude | Speed | Heading |
|---|---|---|---|---|---|
| 2026-04-16 09:54 | -37.86535 | 175.33584 | 177 ft | 0 kts | 196° |
| 2026-04-16 10:05 | -37.86537 | 175.33583 | 177 ft | 1 kts | 196° |
| 2026-04-16 10:05 | -37.86550 | 175.33577 | 177 ft | 2 kts | 220° |
| 2026-04-16 10:06 | -37.86544 | 175.33516 | 177 ft | 17 kts | 262° |
| 2026-04-16 10:06 | -37.86546 | 175.33372 | 177 ft | 17 kts | 285° |
| 2026-04-16 10:06 | -37.86478 | 175.33289 | 177 ft | 17 kts | 15° |
| 2026-04-16 10:06 | -37.86277 | 175.33361 | 177 ft | 35 kts | 18° |
| 2026-04-16 10:07 | -37.86046 | 175.33446 | 177 ft | 34 kts | 16° |
| 2026-04-16 10:07 | -37.85828 | 175.33523 | 177 ft | 29 kts | 16° |
| 2026-04-16 10:07 | -37.85633 | 175.33572 | 177 ft | 28 kts | 30° |
| 2026-04-16 10:07 | -37.85646 | 175.33590 | 177 ft | 1 kts | 198° |
| 2026-04-16 10:08 | -37.85647 | 175.33590 | 177 ft | 0 kts | 198° |
| 2026-04-16 10:09 | -37.85693 | 175.33572 | 177 ft | 41 kts | 197° |
| 2026-04-16 10:10 | -37.86314 | 175.33353 | 225 ft | 133 kts | 199° |
| 2026-04-16 10:10 | -37.87266 | 175.33019 | 1065 ft | 139 kts | 193° |
| 2026-04-16 10:10 | -37.88374 | 175.33098 | 1714 ft | 194 kts | 179° |
| 2026-04-16 10:10 | -37.89843 | 175.33137 | 2614 ft | 218 kts | 185° |
| 2026-04-16 10:11 | -37.91388 | 175.33064 | 3966 ft | 225 kts | 187° |
| 2026-04-16 10:11 | -37.92963 | 175.32978 | 5397 ft | 228 kts | 188° |
| 2026-04-16 10:11 | -37.94553 | 175.32894 | 6885 ft | 229 kts | 189° |
| 2026-04-16 10:11 | -37.96152 | 175.32818 | 8367 ft | 231 kts | 189° |
| 2026-04-16 10:12 | -37.97770 | 175.32750 | 9865 ft | 235 kts | 189° |
| 2026-04-16 10:12 | -37.99414 | 175.32690 | 11395 ft | 237 kts | 189° |
| 2026-04-16 10:12 | -38.01059 | 175.32657 | 12912 ft | 235 kts | 189° |
| 2026-04-16 10:12 | -38.02703 | 175.32667 | 14253 ft | 238 kts | 189° |
| 2026-04-16 10:13 | -38.03808 | 175.32678 | 15049 ft | 241 kts | 189° |
| 2026-04-16 10:13 | -38.06056 | 175.32713 | 16531 ft | 246 kts | 189° |
| 2026-04-16 10:13 | -38.07783 | 175.32744 | 17584 ft | 249 kts | 189° |
| 2026-04-16 10:13 | -38.09533 | 175.32775 | 18576 ft | 252 kts | 189° |
| 2026-04-16 10:14 | -38.10697 | 175.32796 | 19199 ft | 254 kts | 189° |
| 2026-04-16 10:14 | -38.12475 | 175.32828 | 20118 ft | 256 kts | 189° |
| 2026-04-16 10:14 | -38.14265 | 175.32858 | 20963 ft | 258 kts | 189° |
| 2026-04-16 10:14 | -38.16073 | 175.32886 | 21764 ft | 261 kts | 189° |
| 2026-04-16 10:15 | -38.17890 | 175.32918 | 22523 ft | 263 kts | 189° |
| 2026-04-16 10:15 | -38.19722 | 175.32952 | 23255 ft | 264 kts | 189° |
| 2026-04-16 10:15 | -38.21566 | 175.32983 | 23924 ft | 266 kts | 190° |
| 2026-04-16 10:15 | -38.23421 | 175.32975 | 24571 ft | 267 kts | 191° |
| 2026-04-16 10:16 | -38.25281 | 175.32941 | 25250 ft | 268 kts | 191° |
| 2026-04-16 10:16 | -38.27147 | 175.32896 | 25987 ft | 269 kts | 192° |
| 2026-04-16 10:16 | -38.29025 | 175.32848 | 26744 ft | 271 kts | 192° |
| 2026-04-16 10:16 | -38.30918 | 175.32799 | 27550 ft | 273 kts | 192° |
| 2026-04-16 10:17 | -38.32794 | 175.32752 | 28393 ft | 275 kts | 192° |
| 2026-04-16 10:17 | -38.34714 | 175.32703 | 29294 ft | 277 kts | 192° |
| 2026-04-16 10:17 | -38.36652 | 175.32655 | 30253 ft | 280 kts | 192° |
| 2026-04-16 10:17 | -38.38611 | 175.32607 | 31223 ft | 284 kts | 192° |
| 2026-04-16 10:18 | -38.40614 | 175.32554 | 32123 ft | 291 kts | 192° |
| 2026-04-16 10:18 | -38.42655 | 175.32501 | 33111 ft | 296 kts | 192° |
| 2026-04-16 10:18 | -38.44760 | 175.32443 | 33662 ft | 315 kts | 192° |
| 2026-04-16 10:18 | -38.47048 | 175.32360 | 33767 ft | 341 kts | 191° |
| 2026-04-16 10:19 | -38.49498 | 175.32275 | 33886 ft | 364 kts | 191° |
| 2026-04-16 10:19 | -38.52099 | 175.32192 | 33945 ft | 384 kts | 190° |
| 2026-04-16 10:19 | -38.54832 | 175.32119 | 33953 ft | 401 kts | 189° |
| 2026-04-16 10:19 | -38.57681 | 175.32057 | 33950 ft | 415 kts | 189° |
| 2026-04-16 10:20 | -38.63564 | 175.31972 | 33943 ft | 429 kts | 188° |
| 2026-04-16 10:20 | -38.69551 | 175.31892 | 33936 ft | 431 kts | 189° |
| 2026-04-16 10:21 | -38.75541 | 175.31771 | 33930 ft | 430 kts | 189° |
| 2026-04-16 10:21 | -38.81495 | 175.31635 | 33925 ft | 430 kts | 189° |
| 2026-04-16 10:22 | -38.87477 | 175.31491 | 33919 ft | 430 kts | 189° |
| 2026-04-16 10:22 | -38.93502 | 175.31792 | 33915 ft | 437 kts | 183° |
| 2026-04-16 10:23 | -38.99568 | 175.32862 | 33909 ft | 441 kts | 180° |
| 2026-04-16 10:23 | -39.05627 | 175.34203 | 33895 ft | 442 kts | 179° |
| 2026-04-16 10:24 | -39.11694 | 175.35628 | 33883 ft | 442 kts | 179° |
| 2026-04-16 10:24 | -39.17750 | 175.37064 | 33877 ft | 442 kts | 179° |
| 2026-04-16 10:25 | -39.23803 | 175.38494 | 33872 ft | 442 kts | 179° |
| 2026-04-16 10:25 | -39.29810 | 175.39904 | 33880 ft | 442 kts | 179° |
| 2026-04-16 10:26 | -39.35862 | 175.41315 | 33876 ft | 442 kts | 180° |
| 2026-04-16 10:26 | -39.41924 | 175.42723 | 33871 ft | 442 kts | 180° |
| 2026-04-16 10:27 | -39.47982 | 175.44129 | 33867 ft | 442 kts | 180° |
| 2026-04-16 10:27 | -39.54045 | 175.45535 | 33863 ft | 442 kts | 180° |
| 2026-04-16 10:28 | -39.60102 | 175.46940 | 33859 ft | 442 kts | 180° |
| 2026-04-16 10:28 | -39.66154 | 175.48345 | 33857 ft | 442 kts | 180° |
| 2026-04-16 10:29 | -39.72214 | 175.49752 | 33854 ft | 442 kts | 180° |
| 2026-04-16 10:29 | -39.78276 | 175.51162 | 33852 ft | 442 kts | 180° |
| 2026-04-16 10:30 | -39.84327 | 175.52572 | 33850 ft | 442 kts | 180° |
| 2026-04-16 10:30 | -39.90349 | 175.53978 | 33849 ft | 442 kts | 180° |
| 2026-04-16 10:31 | -39.96414 | 175.55395 | 33847 ft | 443 kts | 180° |
| 2026-04-16 10:31 | -39.99452 | 175.56106 | 33523 ft | 443 kts | 180° |
| 2026-04-16 10:31 | -40.02467 | 175.56817 | 33010 ft | 439 kts | 180° |
| 2026-04-16 10:32 | -40.05455 | 175.57526 | 32466 ft | 433 kts | 180° |
| 2026-04-16 10:32 | -40.08396 | 175.58227 | 31919 ft | 429 kts | 180° |
| 2026-04-16 10:32 | -40.11373 | 175.58935 | 31343 ft | 428 kts | 180° |
| 2026-04-16 10:32 | -40.14302 | 175.59628 | 30714 ft | 428 kts | 180° |
| 2026-04-16 10:33 | -40.17165 | 175.60306 | 30072 ft | 415 kts | 180° |
| 2026-04-16 10:33 | -40.19894 | 175.60982 | 29357 ft | 391 kts | 180° |
| 2026-04-16 10:33 | -40.22594 | 175.61621 | 28642 ft | 398 kts | 181° |
| 2026-04-16 10:33 | -40.25343 | 175.62245 | 27975 ft | 403 kts | 181° |
| 2026-04-16 10:34 | -40.28118 | 175.62871 | 27343 ft | 405 kts | 180° |
| 2026-04-16 10:34 | -40.30890 | 175.63283 | 26718 ft | 395 kts | 190° |
| 2026-04-16 10:34 | -40.33585 | 175.62874 | 26098 ft | 385 kts | 200° |
| 2026-04-16 10:34 | -40.36150 | 175.61933 | 25478 ft | 382 kts | 205° |
| 2026-04-16 10:35 | -40.38618 | 175.60708 | 24854 ft | 377 kts | 208° |
| 2026-04-16 10:35 | -40.40968 | 175.59370 | 24211 ft | 363 kts | 210° |
| 2026-04-16 10:35 | -40.43153 | 175.58051 | 23559 ft | 328 kts | 211° |
| 2026-04-16 10:35 | -40.45260 | 175.56736 | 22905 ft | 339 kts | 211° |
| 2026-04-16 10:36 | -40.47387 | 175.55398 | 22257 ft | 340 kts | 211° |
| 2026-04-16 10:36 | -40.49531 | 175.54069 | 21608 ft | 341 kts | 211° |
| 2026-04-16 10:36 | -40.51692 | 175.52759 | 20959 ft | 346 kts | 210° |
| 2026-04-16 10:36 | -40.53882 | 175.51460 | 20311 ft | 336 kts | 210° |
| 2026-04-16 10:37 | -40.55957 | 175.50269 | 19655 ft | 314 kts | 210° |
| 2026-04-16 10:37 | -40.57913 | 175.49168 | 19000 ft | 298 kts | 210° |
| 2026-04-16 10:37 | -40.59762 | 175.48132 | 18346 ft | 280 kts | 210° |
| 2026-04-16 10:37 | -40.61499 | 175.47160 | 17692 ft | 262 kts | 210° |
| 2026-04-16 10:38 | -40.63114 | 175.46256 | 17038 ft | 246 kts | 210° |
| 2026-04-16 10:38 | -40.64668 | 175.45377 | 16387 ft | 241 kts | 211° |
| 2026-04-16 10:38 | -40.66203 | 175.44501 | 15734 ft | 239 kts | 210° |
| 2026-04-16 10:38 | -40.67724 | 175.43631 | 15083 ft | 238 kts | 210° |
| 2026-04-16 10:39 | -40.69240 | 175.42764 | 14435 ft | 238 kts | 210° |
| 2026-04-16 10:39 | -40.70741 | 175.41905 | 13792 ft | 239 kts | 210° |
| 2026-04-16 10:39 | -40.72268 | 175.41032 | 13144 ft | 240 kts | 210° |
| 2026-04-16 10:39 | -40.73806 | 175.40159 | 12493 ft | 242 kts | 209° |
| 2026-04-16 10:40 | -40.75355 | 175.39277 | 11842 ft | 243 kts | 209° |
| 2026-04-16 10:40 | -40.76912 | 175.38389 | 11191 ft | 245 kts | 209° |
| 2026-04-16 10:40 | -40.78500 | 175.37481 | 10675 ft | 256 kts | 209° |
| 2026-04-16 10:40 | -40.80174 | 175.36519 | 10361 ft | 268 kts | 208° |
| 2026-04-16 10:41 | -40.81912 | 175.35520 | 10103 ft | 275 kts | 208° |
| 2026-04-16 10:41 | -40.83661 | 175.34518 | 10057 ft | 274 kts | 208° |
| 2026-04-16 10:41 | -40.85420 | 175.33524 | 10006 ft | 278 kts | 208° |
| 2026-04-16 10:41 | -40.87220 | 175.32499 | 9985 ft | 285 kts | 208° |
| 2026-04-16 10:42 | -40.89022 | 175.31472 | 9976 ft | 279 kts | 208° |
| 2026-04-16 10:42 | -40.90770 | 175.30475 | 9972 ft | 276 kts | 208° |
| 2026-04-16 10:42 | -40.92565 | 175.29444 | 9976 ft | 282 kts | 208° |
| 2026-04-16 10:42 | -40.94394 | 175.28399 | 9976 ft | 290 kts | 207° |
| 2026-04-16 10:43 | -40.96273 | 175.27334 | 9969 ft | 296 kts | 207° |
| 2026-04-16 10:43 | -40.98179 | 175.26231 | 9967 ft | 303 kts | 207° |
| 2026-04-16 10:43 | -41.00155 | 175.25084 | 9969 ft | 320 kts | 207° |
| 2026-04-16 10:43 | -41.02279 | 175.23777 | 9977 ft | 359 kts | 213° |
| 2026-04-16 10:44 | -41.04214 | 175.21676 | 9933 ft | 344 kts | 228° |
| 2026-04-16 10:44 | -41.05558 | 175.19248 | 9533 ft | 305 kts | 241° |
| 2026-04-16 10:44 | -41.06382 | 175.16872 | 9124 ft | 266 kts | 250° |
| 2026-04-16 10:44 | -41.06910 | 175.14589 | 8691 ft | 259 kts | 255° |
| 2026-04-16 10:45 | -41.07330 | 175.12243 | 8220 ft | 263 kts | 256° |
| 2026-04-16 10:45 | -41.08115 | 175.10058 | 7695 ft | 265 kts | 236° |
| 2026-04-16 10:45 | -41.09300 | 175.08262 | 7084 ft | 261 kts | 225° |
| 2026-04-16 10:45 | -41.10653 | 175.06722 | 6559 ft | 251 kts | 224° |
| 2026-04-16 10:46 | -41.11922 | 175.05151 | 5815 ft | 250 kts | 227° |
| 2026-04-16 10:46 | -41.13103 | 175.03522 | 5306 ft | 242 kts | 232° |
| 2026-04-16 10:46 | -41.14133 | 175.01777 | 4612 ft | 242 kts | 234° |
| 2026-04-16 10:46 | -41.15210 | 175.00023 | 3927 ft | 245 kts | 233° |
| 2026-04-16 10:47 | -41.16326 | 174.98227 | 3253 ft | 253 kts | 230° |
| 2026-04-16 10:47 | -41.17421 | 174.96541 | 2858 ft | 229 kts | 231° |
| 2026-04-16 10:47 | -41.18402 | 174.95010 | 2744 ft | 218 kts | 230° |
| 2026-04-16 10:47 | -41.19388 | 174.93432 | 2586 ft | 215 kts | 231° |
| 2026-04-16 10:48 | -41.20252 | 174.91950 | 2452 ft | 193 kts | 234° |
| 2026-04-16 10:48 | -41.21053 | 174.90576 | 2349 ft | 181 kts | 234° |
| 2026-04-16 10:48 | -41.21808 | 174.89288 | 2175 ft | 176 kts | 232° |
| 2026-04-16 10:48 | -41.22581 | 174.88027 | 1966 ft | 177 kts | 234° |
| 2026-04-16 10:49 | -41.23324 | 174.86709 | 1781 ft | 177 kts | 235° |
| 2026-04-16 10:49 | -41.24032 | 174.85414 | 1496 ft | 171 kts | 236° |
| 2026-04-16 10:49 | -41.24770 | 174.84155 | 1455 ft | 181 kts | 234° |
| 2026-04-16 10:49 | -41.25582 | 174.82957 | 1407 ft | 176 kts | 229° |
| 2026-04-16 10:50 | -41.26519 | 174.81895 | 1435 ft | 167 kts | 218° |
| 2026-04-16 10:50 | -41.27482 | 174.81266 | 1233 ft | 152 kts | 203° |
| 2026-04-16 10:50 | -41.28462 | 174.81061 | 909 ft | 140 kts | 195° |
| 2026-04-16 10:50 | -41.29392 | 174.80911 | 651 ft | 131 kts | 189° |
| 2026-04-16 10:51 | -41.30270 | 174.80871 | 345 ft | 126 kts | 188° |
| 2026-04-16 10:51 | -41.31166 | 174.80802 | 211 ft | 130 kts | 189° |
| 2026-04-16 10:51 | -41.32027 | 174.80744 | 45 ft | 130 kts | 190° |
| 2026-04-16 10:51 | -41.32973 | 174.80676 | 373 ft | 141 kts | 190° |
| 2026-04-16 10:52 | -41.33983 | 174.80565 | 873 ft | 154 kts | 191° |
| 2026-04-16 10:52 | -41.35059 | 174.80519 | 1096 ft | 155 kts | 167° |
| 2026-04-16 10:52 | -41.35841 | 174.81623 | 1297 ft | 173 kts | 108° |
| 2026-04-16 10:52 | -41.35627 | 174.83099 | 1291 ft | 170 kts | 48° |
| 2026-04-16 10:53 | -41.34689 | 174.83848 | 1329 ft | 161 kts | 6° |
| 2026-04-16 10:53 | -41.33641 | 174.84093 | 1303 ft | 148 kts | 5° |
| 2026-04-16 10:53 | -41.32601 | 174.84355 | 1345 ft | 153 kts | 5° |
| 2026-04-16 10:53 | -41.31633 | 174.84612 | 1309 ft | 141 kts | 1° |
| 2026-04-16 10:54 | -41.30668 | 174.84761 | 1278 ft | 137 kts | 356° |
| 2026-04-16 10:54 | -41.29721 | 174.84786 | 1211 ft | 135 kts | 347° |
| 2026-04-16 10:54 | -41.28872 | 174.84314 | 1098 ft | 131 kts | 316° |
| 2026-04-16 10:54 | -41.28399 | 174.83394 | 908 ft | 117 kts | 285° |
| 2026-04-16 10:55 | -41.28424 | 174.82381 | 737 ft | 113 kts | 256° |
| 2026-04-16 10:55 | -41.28756 | 174.81434 | 697 ft | 118 kts | 232° |
| 2026-04-16 10:55 | -41.29497 | 174.80922 | 648 ft | 125 kts | 193° |
| 2026-04-16 10:55 | -41.30351 | 174.80854 | 396 ft | 119 kts | 193° |
| 2026-04-16 10:56 | -41.31159 | 174.80806 | 181 ft | 111 kts | 190° |
| 2026-04-16 10:56 | -41.31961 | 174.80743 | 20 ft | 107 kts | 191° |
| 2026-04-16 10:56 | -41.32485 | 174.80702 | 9 ft | 23 kts | 182° |
| 2026-04-16 10:56 | -41.32516 | 174.80648 | 9 ft | 10 kts | 262° |
| 2026-04-16 10:57 | -41.32513 | 174.80554 | 9 ft | 10 kts | 274° |
| 2026-04-16 10:57 | -41.32510 | 174.80453 | 9 ft | 11 kts | 272° |
| 2026-04-16 10:57 | -41.32460 | 174.80421 | 9 ft | 4 kts | 350° |
| 2026-04-16 10:57 | -41.32456 | 174.80415 | 9 ft | 0 kts | 276° |